Ljuta — J8B4127 — position and weather

sailwx.info

Track history (hours):
 
Tides and Currents Weather Stations Pressure Air Temp Water Temp Dewpoint Dewpoint Depression Visibility Wind Speed Wind Dir Waves Ship Positions

Ljuta

Last reported at 2015-Jul-01 22:33 UTC. Time now 2015-Jul-01 23:08 UTC.
Position N 54°27' E 011°37'.

Length 177 m; draft 6.1 m.

Type: Cargo ship. MMSI: 377715000.

Date/timePositionNaut miles runAvg speedWind from/ knotsBaromVisibWave heightAir tempDewpointWater temp
2015-Jul-01 22:33N 54°27' E 011°37'1312.7
2015-Jul-01 21:34N 54°33' E 011°17'1211.9
2015-Jul-01 20:34N 54°39' E 010°60'1110.8
2015-Jul-01 19:34N 54°49' E 010°52'1211.5
2015-Jul-01 18:33N 54°59' E 011°01'1311.6
2015-Jul-01 17:28N 55°12' E 011°06'1212.2
2015-Jul-01 16:30N 55°23' E 011°01'2612.6
2015-Jul-01 14:27N 55°48' E 010°48'1112.8
2015-Jul-01 13:33N 55°57' E 011°00'1313.2
2015-Jul-01 12:34N 56°08' E 011°13'1413.8
2015-Jul-01 11:33N 56°20' E 011°26'1413.8
2015-Jul-01 10:33N 56°32' E 011°39'1313.6
2015-Jul-01 09:33N 56°44' E 011°51'1413.7
2015-Jul-01 08:33N 56°57' E 011°45'1414.3
2015-Jul-01 07:33N 57°10' E 011°36'1414.2
2015-Jul-01 06:33N 57°24' E 011°27'1413.7
2015-Jul-01 05:33N 57°34' E 011°10'1414.5
2015-Jul-01 04:33N 57°44' E 010°51'1413.8
2015-Jul-01 03:33N 57°47' E 010°26'1514.8
2015-Jul-01 02:33N 57°44' E 009°58'1414.3
2015-Jul-01 01:33N 57°37' E 009°36'1414.3
2015-Jul-01 00:33N 57°29' E 009°14'1414.3
2015-Jun-30 23:33N 57°21' E 008°52'1514.3
2015-Jun-30 22:32N 57°13' E 008°29'1413.9
2015-Jun-30 21:33N 57°02' E 008°14'8714.2
2015-Jun-30 15:24N 55°47' E 006°53'1415.8
2015-Jun-30 14:33N 55°35' E 006°41'1313.4
2015-Jun-30 13:33N 55°24' E 006°29'1514.3
2015-Jun-30 12:31N 55°11' E 006°16'1514.7
2015-Jun-30 11:29N 54°58' E 006°02'4214.3
2015-Jun-30 08:33N 54°22' E 005°25'1514.6
2015-Jun-30 07:34N 54°09' E 005°13'1514.6
2015-Jun-30 06:33N 53°56' E 005°02'1514.7
2015-Jun-30 05:33N 53°42' E 004°53'1515.1
2015-Jun-30 04:33N 53°28' E 004°45'1615.7
2015-Jun-30 03:33N 53°14' E 004°35'1615.8
2015-Jun-30 02:33N 53°00' E 004°21'1615.7
2015-Jun-30 01:33N 52°47' E 004°08'1615.7
2015-Jun-30 00:33N 52°35' E 003°50'1515.4
2015-Jun-29 23:33N 52°24' E 003°33'1515.0
2015-Jun-29 22:33N 52°14' E 003°16'1414.4
2015-Jun-29 21:33N 52°03' E 003°00'1413.8
2015-Jun-29 20:33N 51°52' E 002°46'1313.2
2015-Jun-29 19:33N 51°42' E 002°32'1312.9
2015-Jun-29 18:33N 51°32' E 002°18'1212.4
2015-Jun-29 17:34N 51°22' E 002°07'1211.9
2015-Jun-29 16:33N 51°12' E 001°58'1212.2
2015-Jun-29 15:33N 51°04' E 001°42'1312.7
2015-Jun-29 14:33N 50°55' E 001°28'1313.2
2015-Jun-29 13:33N 50°43' E 001°21'1413.4
2015-Jun-29 12:33N 50°34' E 001°05'1713.4
2015-Jun-29 11:16N 50°27' E 000°40'1013.6
2015-Jun-29 10:33N 50°25' E 000°25'1413.8
2015-Jun-29 09:33N 50°21' E 000°05'5215.0
2015-Jun-29 06:05N 50°06' W 001°14'916.5
2015-Jun-29 05:32N 50°04' W 001°27'1716.6
2015-Jun-29 04:32N 49°59' W 001°52'1816.0
2015-Jun-29 03:24N 49°55' W 002°19'1514.6
2015-Jun-29 02:22N 49°50' W 002°41'1113.7
2015-Jun-29 01:33N 49°46' W 002°57'1913.5
2015-Jun-29 00:07N 49°35' W 003°23'2413.3
2015-Jun-28 22:20N 49°23' W 003°54'3813.0
2015-Jun-28 19:26N 49°07' W 004°46'6512.7
2015-Jun-28 14:21N 48°20' W 005°53'1113.6
2015-Jun-28 13:31N 48°09' W 005°59'1414.2
2015-Jun-28 12:32N 47°56' W 006°06'1514.5
2015-Jun-28 11:30N 47°42' W 006°14'2814.5
2015-Jun-28 09:33N 47°16' W 006°29'1513.9
2015-Jun-28 08:28N 47°02' W 006°37'5613.7
2015-Jun-28 04:24N 46°10' W 007°06'1313.6
2015-Jun-28 03:27N 45°58' W 007°12'1213.8
2015-Jun-28 02:33N 45°46' W 007°19'  
2015-Jun-22 19:33N 46°08' W 001°15'2 2.0
2015-Jun-22 18:33N 46°10' W 001°14'0 0.0
2015-Jun-22 17:33N 46°10' W 001°14'0 0.0
2015-Jun-22 16:33N 46°10' W 001°14'0 0.0
2015-Jun-22 15:33N 46°10' W 001°14'0 0.0
2015-Jun-22 14:33N 46°10' W 001°14'0 0.0
2015-Jun-22 13:33N 46°10' W 001°14'0 0.0
2015-Jun-22 12:33N 46°10' W 001°14'0 0.0
2015-Jun-22 11:33N 46°10' W 001°14'0 0.0
2015-Jun-22 10:33N 46°10' W 001°14'0 0.0
2015-Jun-22 09:33N 46°10' W 001°14'0 0.0
2015-Jun-22 08:33N 46°10' W 001°14'0 0.0
2015-Jun-22 07:33N 46°10' W 001°14'0 0.0
2015-Jun-22 06:33N 46°10' W 001°14'0 0.0
2015-Jun-22 05:33N 46°10' W 001°14'0 0.0
2015-Jun-22 04:33N 46°10' W 001°14'0 0.0
2015-Jun-22 03:33N 46°10' W 001°14'0 0.0
2015-Jun-22 02:33N 46°10' W 001°14'0 0.0
2015-Jun-22 01:33N 46°10' W 001°14'0 0.0
2015-Jun-22 00:33N 46°10' W 001°14'0 0.0
2015-Jun-21 23:33N 46°10' W 001°14'  
Track history (hours):
 
Tides and Currents Weather Stations Pressure Air Temp Water Temp Dewpoint Dewpoint Depression Visibility Wind Speed Wind Dir Waves Ship Positions

Ljuta

Last reported at 2015-Jul-01 22:33 UTC. Time now 2015-Jul-01 23:08 UTC.
Position N 54°27' E 011°37'.

Length 177 m; draft 6.1 m.

Type: Cargo ship. MMSI: 377715000.

Date/timePositionNaut miles runAvg speedWind from/ knotsBaromVisibWave heightAir tempDewpointWater temp
2015-Jul-01 22:33N 54°27' E 011°37'1312.7
2015-Jul-01 21:34N 54°33' E 011°17'1211.9
2015-Jul-01 20:34N 54°39' E 010°60'1110.8
2015-Jul-01 19:34N 54°49' E 010°52'1211.5
2015-Jul-01 18:33N 54°59' E 011°01'1311.6
2015-Jul-01 17:28N 55°12' E 011°06'1212.2
2015-Jul-01 16:30N 55°23' E 011°01'2612.6
2015-Jul-01 14:27N 55°48' E 010°48'1112.8
2015-Jul-01 13:33N 55°57' E 011°00'1313.2
2015-Jul-01 12:34N 56°08' E 011°13'1413.8
2015-Jul-01 11:33N 56°20' E 011°26'1413.8
2015-Jul-01 10:33N 56°32' E 011°39'1313.6
2015-Jul-01 09:33N 56°44' E 011°51'1413.7
2015-Jul-01 08:33N 56°57' E 011°45'1414.3
2015-Jul-01 07:33N 57°10' E 011°36'1414.2
2015-Jul-01 06:33N 57°24' E 011°27'1413.7
2015-Jul-01 05:33N 57°34' E 011°10'1414.5
2015-Jul-01 04:33N 57°44' E 010°51'1413.8
2015-Jul-01 03:33N 57°47' E 010°26'1514.8
2015-Jul-01 02:33N 57°44' E 009°58'1414.3
2015-Jul-01 01:33N 57°37' E 009°36'1414.3
2015-Jul-01 00:33N 57°29' E 009°14'1414.3
2015-Jun-30 23:33N 57°21' E 008°52'1514.3
2015-Jun-30 22:32N 57°13' E 008°29'1413.9
2015-Jun-30 21:33N 57°02' E 008°14'8714.2
2015-Jun-30 15:24N 55°47' E 006°53'1415.8
2015-Jun-30 14:33N 55°35' E 006°41'1313.4
2015-Jun-30 13:33N 55°24' E 006°29'1514.3
2015-Jun-30 12:31N 55°11' E 006°16'1514.7
2015-Jun-30 11:29N 54°58' E 006°02'4214.3
2015-Jun-30 08:33N 54°22' E 005°25'1514.6
2015-Jun-30 07:34N 54°09' E 005°13'1514.6
2015-Jun-30 06:33N 53°56' E 005°02'1514.7
2015-Jun-30 05:33N 53°42' E 004°53'1515.1
2015-Jun-30 04:33N 53°28' E 004°45'1615.7
2015-Jun-30 03:33N 53°14' E 004°35'1615.8
2015-Jun-30 02:33N 53°00' E 004°21'1615.7
2015-Jun-30 01:33N 52°47' E 004°08'1615.7
2015-Jun-30 00:33N 52°35' E 003°50'1515.4
2015-Jun-29 23:33N 52°24' E 003°33'1515.0
2015-Jun-29 22:33N 52°14' E 003°16'1414.4
2015-Jun-29 21:33N 52°03' E 003°00'1413.8
2015-Jun-29 20:33N 51°52' E 002°46'1313.2
2015-Jun-29 19:33N 51°42' E 002°32'1312.9
2015-Jun-29 18:33N 51°32' E 002°18'1212.4
2015-Jun-29 17:34N 51°22' E 002°07'1211.9
2015-Jun-29 16:33N 51°12' E 001°58'1212.2
2015-Jun-29 15:33N 51°04' E 001°42'1312.7
2015-Jun-29 14:33N 50°55' E 001°28'1313.2
2015-Jun-29 13:33N 50°43' E 001°21'1413.4
2015-Jun-29 12:33N 50°34' E 001°05'1713.4
2015-Jun-29 11:16N 50°27' E 000°40'1013.6
2015-Jun-29 10:33N 50°25' E 000°25'1413.8
2015-Jun-29 09:33N 50°21' E 000°05'5215.0
2015-Jun-29 06:05N 50°06' W 001°14'916.5
2015-Jun-29 05:32N 50°04' W 001°27'1716.6
2015-Jun-29 04:32N 49°59' W 001°52'1816.0
2015-Jun-29 03:24N 49°55' W 002°19'1514.6
2015-Jun-29 02:22N 49°50' W 002°41'1113.7
2015-Jun-29 01:33N 49°46' W 002°57'1913.5
2015-Jun-29 00:07N 49°35' W 003°23'2413.3
2015-Jun-28 22:20N 49°23' W 003°54'3813.0
2015-Jun-28 19:26N 49°07' W 004°46'6512.7
2015-Jun-28 14:21N 48°20' W 005°53'1113.6
2015-Jun-28 13:31N 48°09' W 005°59'1414.2
2015-Jun-28 12:32N 47°56' W 006°06'1514.5
2015-Jun-28 11:30N 47°42' W 006°14'2814.5
2015-Jun-28 09:33N 47°16' W 006°29'1513.9
2015-Jun-28 08:28N 47°02' W 006°37'5613.7
2015-Jun-28 04:24N 46°10' W 007°06'1313.6
2015-Jun-28 03:27N 45°58' W 007°12'1213.8
2015-Jun-28 02:33N 45°46' W 007°19'  
2015-Jun-22 19:33N 46°08' W 001°15'2 2.0
2015-Jun-22 18:33N 46°10' W 001°14'0 0.0
2015-Jun-22 17:33N 46°10' W 001°14'0 0.0
2015-Jun-22 16:33N 46°10' W 001°14'0 0.0
2015-Jun-22 15:33N 46°10' W 001°14'0 0.0
2015-Jun-22 14:33N 46°10' W 001°14'0 0.0
2015-Jun-22 13:33N 46°10' W 001°14'0 0.0
2015-Jun-22 12:33N 46°10' W 001°14'0 0.0
2015-Jun-22 11:33N 46°10' W 001°14'0 0.0
2015-Jun-22 10:33N 46°10' W 001°14'0 0.0
2015-Jun-22 09:33N 46°10' W 001°14'0 0.0
2015-Jun-22 08:33N 46°10' W 001°14'0 0.0
2015-Jun-22 07:33N 46°10' W 001°14'0 0.0
2015-Jun-22 06:33N 46°10' W 001°14'0 0.0
2015-Jun-22 05:33N 46°10' W 001°14'0 0.0
2015-Jun-22 04:33N 46°10' W 001°14'0 0.0
2015-Jun-22 03:33N 46°10' W 001°14'0 0.0
2015-Jun-22 02:33N 46°10' W 001°14'0 0.0
2015-Jun-22 01:33N 46°10' W 001°14'0 0.0
2015-Jun-22 00:33N 46°10' W 001°14'0 0.0
2015-Jun-21 23:33N 46°10' W 001°14'  

Dump ship's entire track history